sensor_id;sensor_type;location;lat;lon;timestamp;temperature;humidity
5457;DHT22;2751;49.802;9.944;2023-04-12T00:00:04;8.10;1.00
5457;DHT22;2751;49.802;9.944;2023-04-12T00:02:34;8.00;1.00
5457;DHT22;2751;49.802;9.944;2023-04-12T00:05:02;8.00;1.00
5457;DHT22;2751;49.802;9.944;2023-04-12T00:07:29;8.00;1.00
5457;DHT22;2751;49.802;9.944;2023-04-12T00:09:56;8.00;1.00
5457;DHT22;2751;49.802;9.944;2023-04-12T00:12:24;7.90;1.00
5457;DHT22;2751;49.802;9.944;2023-04-12T00:14:51;7.90;1.00
5457;DHT22;2751;49.802;9.944;2023-04-12T00:17:19;8.10;1.00
5457;DHT22;2751;49.802;9.944;2023-04-12T00:19:47;7.90;1.00
5457;DHT22;2751;49.802;9.944;2023-04-12T00:22:15;7.90;1.00
5457;DHT22;2751;49.802;9.944;2023-04-12T00:24:42;7.80;1.00
5457;DHT22;2751;49.802;9.944;2023-04-12T00:27:09;7.80;1.00
5457;DHT22;2751;49.802;9.944;2023-04-12T00:29:36;7.90;1.00
5457;DHT22;2751;49.802;9.944;2023-04-12T00:32:03;7.90;1.00
5457;DHT22;2751;49.802;9.944;2023-04-12T00:34:32;7.90;1.00
5457;DHT22;2751;49.802;9.944;2023-04-12T00:36:59;7.90;1.00
5457;DHT22;2751;49.802;9.944;2023-04-12T00:39:26;7.90;1.00
5457;DHT22;2751;49.802;9.944;2023-04-12T00:41:53;7.90;1.00
5457;DHT22;2751;49.802;9.944;2023-04-12T00:44:21;8.00;1.00
5457;DHT22;2751;49.802;9.944;2023-04-12T00:46:48;8.00;1.00
5457;DHT22;2751;49.802;9.944;2023-04-12T00:49:15;8.40;1.00
5457;DHT22;2751;49.802;9.944;2023-04-12T00:51:43;8.00;1.00
5457;DHT22;2751;49.802;9.944;2023-04-12T00:54:11;8.00;1.00
5457;DHT22;2751;49.802;9.944;2023-04-12T00:56:39;8.40;1.00
5457;DHT22;2751;49.802;9.944;2023-04-12T00:59:09;8.10;1.00
5457;DHT22;2751;49.802;9.944;2023-04-12T01:01:36;8.10;1.00
5457;DHT22;2751;49.802;9.944;2023-04-12T01:04:05;8.10;1.00
5457;DHT22;2751;49.802;9.944;2023-04-12T01:06:40;8.50;1.00
5457;DHT22;2751;49.802;9.944;2023-04-12T01:09:21;8.20;1.00
5457;DHT22;2751;49.802;9.944;2023-04-12T01:14:45;8.70;1.00
5457;DHT22;2751;49.802;9.944;2023-04-12T01:17:18;8.30;1.00
5457;DHT22;2751;49.802;9.944;2023-04-12T01:19:54;8.30;1.00
5457;DHT22;2751;49.802;9.944;2023-04-12T01:22:44;8.30;1.00
5457;DHT22;2751;49.802;9.944;2023-04-12T01:25:36;8.40;1.00
5457;DHT22;2751;49.802;9.944;2023-04-12T01:28:07;8.40;1.00
5457;DHT22;2751;49.802;9.944;2023-04-12T01:30:35;8.40;1.00
5457;DHT22;2751;49.802;9.944;2023-04-12T01:33:05;8.40;1.00
5457;DHT22;2751;49.802;9.944;2023-04-12T01:35:34;8.40;1.00
5457;DHT22;2751;49.802;9.944;2023-04-12T01:38:02;8.40;1.00
5457;DHT22;2751;49.802;9.944;2023-04-12T01:40:30;8.80;1.00
5457;DHT22;2751;49.802;9.944;2023-04-12T01:43:05;8.70;1.00
5457;DHT22;2751;49.802;9.944;2023-04-12T01:45:33;8.40;1.00
5457;DHT22;2751;49.802;9.944;2023-04-12T01:48:00;8.40;1.00
5457;DHT22;2751;49.802;9.944;2023-04-12T01:50:35;8.40;1.00
5457;DHT22;2751;49.802;9.944;2023-04-12T01:53:09;8.40;1.00
5457;DHT22;2751;49.802;9.944;2023-04-12T01:55:38;8.40;88.70
5457;DHT22;2751;49.802;9.944;2023-04-12T01:58:08;8.40;1.00
5457;DHT22;2751;49.802;9.944;2023-04-12T02:00:36;8.40;53.60
5457;DHT22;2751;49.802;9.944;2023-04-12T02:03:04;8.50;99.90
5457;DHT22;2751;49.802;9.944;2023-04-12T02:05:32;8.50;99.90
5457;DHT22;2751;49.802;9.944;2023-04-12T02:08:01;8.50;99.90
5457;DHT22;2751;49.802;9.944;2023-04-12T02:10:29;8.50;99.90
5457;DHT22;2751;49.802;9.944;2023-04-12T02:12:59;8.50;99.90
5457;DHT22;2751;49.802;9.944;2023-04-12T02:15:28;8.40;1.00
5457;DHT22;2751;49.802;9.944;2023-04-12T02:17:55;8.40;1.00
5457;DHT22;2751;49.802;9.944;2023-04-12T02:20:24;8.40;1.00
5457;DHT22;2751;49.802;9.944;2023-04-12T02:22:51;8.50;1.00
5457;DHT22;2751;49.802;9.944;2023-04-12T02:25:18;8.50;1.00
5457;DHT22;2751;49.802;9.944;2023-04-12T02:27:45;8.50;1.00
5457;DHT22;2751;49.802;9.944;2023-04-12T02:30:13;8.50;1.00
5457;DHT22;2751;49.802;9.944;2023-04-12T02:32:41;8.50;1.00
5457;DHT22;2751;49.802;9.944;2023-04-12T02:35:12;8.60;1.00
5457;DHT22;2751;49.802;9.944;2023-04-12T02:37:43;8.60;1.00
5457;DHT22;2751;49.802;9.944;2023-04-12T02:40:11;8.90;1.00
5457;DHT22;2751;49.802;9.944;2023-04-12T02:42:40;8.60;99.90
5457;DHT22;2751;49.802;9.944;2023-04-12T02:45:08;8.60;36.30
5457;DHT22;2751;49.802;9.944;2023-04-12T02:47:35;8.60;2.80
5457;DHT22;2751;49.802;9.944;2023-04-12T02:50:05;8.60;50.30
5457;DHT22;2751;49.802;9.944;2023-04-12T02:52:32;8.60;99.90
5457;DHT22;2751;49.802;9.944;2023-04-12T02:54:59;8.60;51.60
5457;DHT22;2751;49.802;9.944;2023-04-12T02:57:26;8.60;90.60
5457;DHT22;2751;49.802;9.944;2023-04-12T02:59:53;8.70;99.90
5457;DHT22;2751;49.802;9.944;2023-04-12T03:02:21;8.70;71.70
5457;DHT22;2751;49.802;9.944;2023-04-12T03:04:48;8.70;99.90
5457;DHT22;2751;49.802;9.944;2023-04-12T03:07:18;8.70;1.00
5457;DHT22;2751;49.802;9.944;2023-04-12T03:09:48;8.70;35.00
5457;DHT22;2751;49.802;9.944;2023-04-12T03:12:15;8.80;98.60
5457;DHT22;2751;49.802;9.944;2023-04-12T03:14:42;8.80;99.90
5457;DHT22;2751;49.802;9.944;2023-04-12T03:17:09;8.80;41.90
5457;DHT22;2751;49.802;9.944;2023-04-12T03:19:36;8.80;71.10
5457;DHT22;2751;49.802;9.944;2023-04-12T03:22:04;8.80;1.00
5457;DHT22;2751;49.802;9.944;2023-04-12T03:24:32;8.40;1.00
5457;DHT22;2751;49.802;9.944;2023-04-12T03:27:00;8.80;1.00
5457;DHT22;2751;49.802;9.944;2023-04-12T03:29:28;8.80;1.00
5457;DHT22;2751;49.802;9.944;2023-04-12T03:31:55;8.80;1.00
5457;DHT22;2751;49.802;9.944;2023-04-12T03:34:24;8.70;1.00
5457;DHT22;2751;49.802;9.944;2023-04-12T03:36:52;8.70;1.00
5457;DHT22;2751;49.802;9.944;2023-04-12T03:39:19;8.60;1.00
5457;DHT22;2751;49.802;9.944;2023-04-12T03:41:48;8.60;1.00
5457;DHT22;2751;49.802;9.944;2023-04-12T03:44:15;8.60;1.00
5457;DHT22;2751;49.802;9.944;2023-04-12T03:46:42;8.70;1.00
5457;DHT22;2751;49.802;9.944;2023-04-12T03:49:09;8.60;4.60
5457;DHT22;2751;49.802;9.944;2023-04-12T03:51:36;8.60;1.00
5457;DHT22;2751;49.802;9.944;2023-04-12T03:54:08;8.90;1.00
5457;DHT22;2751;49.802;9.944;2023-04-12T03:56:35;8.60;17.60
5457;DHT22;2751;49.802;9.944;2023-04-12T03:59:05;8.60;1.00
5457;DHT22;2751;49.802;9.944;2023-04-12T04:01:32;8.60;9.90
5457;DHT22;2751;49.802;9.944;2023-04-12T04:03:59;8.90;97.50
5457;DHT22;2751;49.802;9.944;2023-04-12T04:06:26;8.60;99.90
5457;DHT22;2751;49.802;9.944;2023-04-12T04:08:54;8.50;99.90
5457;DHT22;2751;49.802;9.944;2023-04-12T04:11:21;8.50;99.90
5457;DHT22;2751;49.802;9.944;2023-04-12T04:13:48;8.50;99.90
5457;DHT22;2751;49.802;9.944;2023-04-12T04:16:17;8.50;99.90
5457;DHT22;2751;49.802;9.944;2023-04-12T04:18:44;8.50;99.90
5457;DHT22;2751;49.802;9.944;2023-04-12T04:21:10;8.50;99.90
5457;DHT22;2751;49.802;9.944;2023-04-12T04:23:38;8.50;89.60
5457;DHT22;2751;49.802;9.944;2023-04-12T04:26:09;8.60;71.90
5457;DHT22;2751;49.802;9.944;2023-04-12T04:28:37;8.50;99.90
5457;DHT22;2751;49.802;9.944;2023-04-12T04:31:04;8.40;99.90
5457;DHT22;2751;49.802;9.944;2023-04-12T04:33:33;8.40;99.90
5457;DHT22;2751;49.802;9.944;2023-04-12T04:36:00;8.30;99.90
5457;DHT22;2751;49.802;9.944;2023-04-12T04:38:28;8.30;99.90
5457;DHT22;2751;49.802;9.944;2023-04-12T04:40:57;8.50;99.90
5457;DHT22;2751;49.802;9.944;2023-04-12T04:43:24;8.30;99.90
5457;DHT22;2751;49.802;9.944;2023-04-12T04:45:55;8.30;99.90
5457;DHT22;2751;49.802;9.944;2023-04-12T04:48:22;8.30;99.90
5457;DHT22;2751;49.802;9.944;2023-04-12T04:50:50;8.30;99.90
5457;DHT22;2751;49.802;9.944;2023-04-12T04:53:20;8.30;99.90
5457;DHT22;2751;49.802;9.944;2023-04-12T04:55:47;8.30;1.00
5457;DHT22;2751;49.802;9.944;2023-04-12T04:58:15;8.70;1.00
5457;DHT22;2751;49.802;9.944;2023-04-12T05:00:42;8.30;1.00
5457;DHT22;2751;49.802;9.944;2023-04-12T05:03:10;8.30;1.00
5457;DHT22;2751;49.802;9.944;2023-04-12T05:05:37;8.30;1.00
5457;DHT22;2751;49.802;9.944;2023-04-12T05:08:06;8.30;1.00
5457;DHT22;2751;49.802;9.944;2023-04-12T05:10:33;8.20;1.00
5457;DHT22;2751;49.802;9.944;2023-04-12T05:13:00;8.30;1.00
5457;DHT22;2751;49.802;9.944;2023-04-12T05:15:28;8.30;15.50
5457;DHT22;2751;49.802;9.944;2023-04-12T05:17:55;8.30;1.00
5457;DHT22;2751;49.802;9.944;2023-04-12T05:20:22;8.30;1.00
5457;DHT22;2751;49.802;9.944;2023-04-12T05:22:49;8.40;6.40
5457;DHT22;2751;49.802;9.944;2023-04-12T05:25:17;8.30;1.00
5457;DHT22;2751;49.802;9.944;2023-04-12T05:27:46;8.30;1.00
5457;DHT22;2751;49.802;9.944;2023-04-12T05:30:13;8.30;1.00
5457;DHT22;2751;49.802;9.944;2023-04-12T05:32:39;8.40;1.00
5457;DHT22;2751;49.802;9.944;2023-04-12T05:35:07;8.50;1.00
5457;DHT22;2751;49.802;9.944;2023-04-12T05:37:34;8.40;1.00
5457;DHT22;2751;49.802;9.944;2023-04-12T05:40:01;8.40;1.00
5457;DHT22;2751;49.802;9.944;2023-04-12T05:42:32;8.50;1.00
5457;DHT22;2751;49.802;9.944;2023-04-12T05:44:58;8.60;99.90
5457;DHT22;2751;49.802;9.944;2023-04-12T05:47:25;8.70;1.00
5457;DHT22;2751;49.802;9.944;2023-04-12T05:49:53;8.50;5.50
5457;DHT22;2751;49.802;9.944;2023-04-12T05:52:20;8.60;57.70
5457;DHT22;2751;49.802;9.944;2023-04-12T05:54:47;8.60;99.90
5457;DHT22;2751;49.802;9.944;2023-04-12T05:57:13;8.90;1.00
5457;DHT22;2751;49.802;9.944;2023-04-12T05:59:43;8.60;1.00
5457;DHT22;2751;49.802;9.944;2023-04-12T06:02:10;8.60;56.80
5457;DHT22;2751;49.802;9.944;2023-04-12T06:04:37;8.50;1.00
5457;DHT22;2751;49.802;9.944;2023-04-12T06:07:05;8.50;52.10
5457;DHT22;2751;49.802;9.944;2023-04-12T06:09:32;8.60;1.00
5457;DHT22;2751;49.802;9.944;2023-04-12T06:11:59;8.60;99.90
5457;DHT22;2751;49.802;9.944;2023-04-12T06:14:26;9.00;99.90
5457;DHT22;2751;49.802;9.944;2023-04-12T06:16:54;8.60;99.90
5457;DHT22;2751;49.802;9.944;2023-04-12T06:19:21;8.50;99.90
5457;DHT22;2751;49.802;9.944;2023-04-12T06:21:48;8.50;99.90
5457;DHT22;2751;49.802;9.944;2023-04-12T06:24:14;8.50;99.90
5457;DHT22;2751;49.802;9.944;2023-04-12T06:26:41;8.40;99.90
5457;DHT22;2751;49.802;9.944;2023-04-12T06:29:11;8.40;1.00
5457;DHT22;2751;49.802;9.944;2023-04-12T06:31:38;8.70;54.90
5457;DHT22;2751;49.802;9.944;2023-04-12T06:34:06;8.40;1.00
5457;DHT22;2751;49.802;9.944;2023-04-12T06:36:33;8.50;1.00
5457;DHT22;2751;49.802;9.944;2023-04-12T06:39:00;8.50;99.90
5457;DHT22;2751;49.802;9.944;2023-04-12T06:41:28;8.50;99.90
5457;DHT22;2751;49.802;9.944;2023-04-12T06:43:55;8.60;99.90
5457;DHT22;2751;49.802;9.944;2023-04-12T06:46:24;8.60;99.90
5457;DHT22;2751;49.802;9.944;2023-04-12T06:48:52;8.60;1.00
5457;DHT22;2751;49.802;9.944;2023-04-12T06:51:20;8.60;1.00
5457;DHT22;2751;49.802;9.944;2023-04-12T06:53:47;8.50;1.00
5457;DHT22;2751;49.802;9.944;2023-04-12T06:56:13;8.50;99.90
5457;DHT22;2751;49.802;9.944;2023-04-12T06:58:40;8.50;99.90
5457;DHT22;2751;49.802;9.944;2023-04-12T07:01:08;8.50;99.90
5457;DHT22;2751;49.802;9.944;2023-04-12T07:03:36;8.60;1.00
5457;DHT22;2751;49.802;9.944;2023-04-12T07:06:03;8.60;99.90
5457;DHT22;2751;49.802;9.944;2023-04-12T07:08:34;8.60;1.00
5457;DHT22;2751;49.802;9.944;2023-04-12T07:11:01;8.60;1.00
5457;DHT22;2751;49.802;9.944;2023-04-12T07:13:28;8.70;99.90
5457;DHT22;2751;49.802;9.944;2023-04-12T07:15:56;9.00;81.00
5457;DHT22;2751;49.802;9.944;2023-04-12T07:18:25;8.70;99.90
5457;DHT22;2751;49.802;9.944;2023-04-12T07:20:54;8.70;1.00
5457;DHT22;2751;49.802;9.944;2023-04-12T07:23:21;8.80;1.00
5457;DHT22;2751;49.802;9.944;2023-04-12T07:25:50;8.80;1.00
5457;DHT22;2751;49.802;9.944;2023-04-12T07:28:18;8.80;1.00
5457;DHT22;2751;49.802;9.944;2023-04-12T07:30:44;8.70;1.00
5457;DHT22;2751;49.802;9.944;2023-04-12T07:33:11;8.80;1.00
5457;DHT22;2751;49.802;9.944;2023-04-12T07:35:38;8.80;99.90
5457;DHT22;2751;49.802;9.944;2023-04-12T07:38:05;8.80;99.90
5457;DHT22;2751;49.802;9.944;2023-04-12T07:40:32;8.90;1.00
5457;DHT22;2751;49.802;9.944;2023-04-12T07:43:00;8.90;99.90
5457;DHT22;2751;49.802;9.944;2023-04-12T07:45:27;8.80;1.00
5457;DHT22;2751;49.802;9.944;2023-04-12T07:47:54;8.80;1.00
5457;DHT22;2751;49.802;9.944;2023-04-12T07:50:21;9.00;99.90
5457;DHT22;2751;49.802;9.944;2023-04-12T07:52:48;9.00;99.90
5457;DHT22;2751;49.802;9.944;2023-04-12T07:55:14;9.00;99.90
5457;DHT22;2751;49.802;9.944;2023-04-12T07:57:42;9.00;99.90
5457;DHT22;2751;49.802;9.944;2023-04-12T08:00:11;9.00;1.00
5457;DHT22;2751;49.802;9.944;2023-04-12T08:02:38;8.60;99.90
5457;DHT22;2751;49.802;9.944;2023-04-12T08:05:06;9.00;99.90
5457;DHT22;2751;49.802;9.944;2023-04-12T08:07:33;8.90;1.00
5457;DHT22;2751;49.802;9.944;2023-04-12T08:10:00;8.90;1.00
5457;DHT22;2751;49.802;9.944;2023-04-12T08:12:27;8.80;1.00
5457;DHT22;2751;49.802;9.944;2023-04-12T08:14:53;8.80;1.00
5457;DHT22;2751;49.802;9.944;2023-04-12T08:17:22;9.00;1.00
5457;DHT22;2751;49.802;9.944;2023-04-12T08:19:48;8.80;1.00
5457;DHT22;2751;49.802;9.944;2023-04-12T08:22:15;8.90;1.00
5457;DHT22;2751;49.802;9.944;2023-04-12T08:24:42;9.00;1.00
5457;DHT22;2751;49.802;9.944;2023-04-12T08:27:09;9.40;1.00
5457;DHT22;2751;49.802;9.944;2023-04-12T08:29:38;9.00;1.00
5457;DHT22;2751;49.802;9.944;2023-04-12T08:32:05;9.00;1.00
5457;DHT22;2751;49.802;9.944;2023-04-12T08:34:36;9.00;1.00
5457;DHT22;2751;49.802;9.944;2023-04-12T08:37:03;9.10;1.00
5457;DHT22;2751;49.802;9.944;2023-04-12T08:39:31;9.10;1.00
5457;DHT22;2751;49.802;9.944;2023-04-12T08:41:59;9.10;1.00
5457;DHT22;2751;49.802;9.944;2023-04-12T08:44:33;9.20;1.00
5457;DHT22;2751;49.802;9.944;2023-04-12T08:47:03;9.50;1.00
5457;DHT22;2751;49.802;9.944;2023-04-12T08:49:31;9.30;1.00
5457;DHT22;2751;49.802;9.944;2023-04-12T08:52:02;9.30;1.00
5457;DHT22;2751;49.802;9.944;2023-04-12T08:54:30;9.50;99.90
5457;DHT22;2751;49.802;9.944;2023-04-12T08:56:58;9.50;1.00
5457;DHT22;2751;49.802;9.944;2023-04-12T08:59:27;9.50;1.00
5457;DHT22;2751;49.802;9.944;2023-04-12T09:01:54;9.50;99.90
5457;DHT22;2751;49.802;9.944;2023-04-12T09:04:21;9.60;99.90
5457;DHT22;2751;49.802;9.944;2023-04-12T09:06:48;9.60;1.00
5457;DHT22;2751;49.802;9.944;2023-04-12T09:09:17;9.70;1.00
5457;DHT22;2751;49.802;9.944;2023-04-12T09:11:44;9.80;99.90
5457;DHT22;2751;49.802;9.944;2023-04-12T09:14:21;9.70;1.00
5457;DHT22;2751;49.802;9.944;2023-04-12T09:16:48;9.60;99.90
5457;DHT22;2751;49.802;9.944;2023-04-12T09:19:19;9.90;1.00
5457;DHT22;2751;49.802;9.944;2023-04-12T09:21:56;9.60;99.90
5457;DHT22;2751;49.802;9.944;2023-04-12T09:24:24;9.60;99.90
5457;DHT22;2751;49.802;9.944;2023-04-12T09:27:00;9.60;99.90
5457;DHT22;2751;49.802;9.944;2023-04-12T09:29:28;9.70;20.30
5457;DHT22;2751;49.802;9.944;2023-04-12T09:31:58;10.00;99.90
5457;DHT22;2751;49.802;9.944;2023-04-12T09:34:25;10.30;1.00
5457;DHT22;2751;49.802;9.944;2023-04-12T09:36:52;10.30;1.00
5457;DHT22;2751;49.802;9.944;2023-04-12T09:39:19;10.30;1.00
5457;DHT22;2751;49.802;9.944;2023-04-12T09:42:03;10.30;1.00
5457;DHT22;2751;49.802;9.944;2023-04-12T09:44:29;10.60;1.00
5457;DHT22;2751;49.802;9.944;2023-04-12T09:46:57;10.60;99.90
5457;DHT22;2751;49.802;9.944;2023-04-12T09:49:35;10.80;1.00
5457;DHT22;2751;49.802;9.944;2023-04-12T09:52:03;11.00;1.00
5457;DHT22;2751;49.802;9.944;2023-04-12T09:54:31;11.10;1.00
5457;DHT22;2751;49.802;9.944;2023-04-12T09:57:05;10.90;99.90
5457;DHT22;2751;49.802;9.944;2023-04-12T09:59:35;11.10;99.90
5457;DHT22;2751;49.802;9.944;2023-04-12T10:02:07;10.80;99.90
5457;DHT22;2751;49.802;9.944;2023-04-12T10:04:38;10.80;99.90
5457;DHT22;2751;49.802;9.944;2023-04-12T10:07:06;10.90;99.90
5457;DHT22;2751;49.802;9.944;2023-04-12T10:09:33;10.80;50.40
5457;DHT22;2751;49.802;9.944;2023-04-12T10:12:01;10.80;99.90
5457;DHT22;2751;49.802;9.944;2023-04-12T10:14:31;10.70;1.00
5457;DHT22;2751;49.802;9.944;2023-04-12T10:16:59;10.70;99.90
5457;DHT22;2751;49.802;9.944;2023-04-12T10:19:27;10.70;99.90
5457;DHT22;2751;49.802;9.944;2023-04-12T10:21:55;10.70;1.00
5457;DHT22;2751;49.802;9.944;2023-04-12T10:24:22;10.70;1.00
5457;DHT22;2751;49.802;9.944;2023-04-12T10:26:49;10.90;99.90
5457;DHT22;2751;49.802;9.944;2023-04-12T10:29:27;10.90;99.90
5457;DHT22;2751;49.802;9.944;2023-04-12T10:31:57;11.00;99.90
5457;DHT22;2751;49.802;9.944;2023-04-12T10:34:28;11.20;99.90
5457;DHT22;2751;49.802;9.944;2023-04-12T10:36:56;11.20;1.00
5457;DHT22;2751;49.802;9.944;2023-04-12T10:39:37;11.20;1.00
5457;DHT22;2751;49.802;9.944;2023-04-12T10:42:23;11.30;1.00
5457;DHT22;2751;49.802;9.944;2023-04-12T10:44:52;11.50;99.90
5457;DHT22;2751;49.802;9.944;2023-04-12T10:47:58;11.70;99.90
5457;DHT22;2751;49.802;9.944;2023-04-12T10:50:26;11.70;99.90
5457;DHT22;2751;49.802;9.944;2023-04-12T10:53:19;11.60;1.00
5457;DHT22;2751;49.802;9.944;2023-04-12T10:55:47;11.50;1.00
5457;DHT22;2751;49.802;9.944;2023-04-12T11:01:15;11.50;1.00
5457;DHT22;2751;49.802;9.944;2023-04-12T11:04:05;11.50;99.90
5457;DHT22;2751;49.802;9.944;2023-04-12T11:06:53;11.70;99.90
5457;DHT22;2751;49.802;9.944;2023-04-12T11:09:25;11.60;99.90
5457;DHT22;2751;49.802;9.944;2023-04-12T11:11:57;11.50;1.00
5457;DHT22;2751;49.802;9.944;2023-04-12T11:14:27;11.70;1.00
5457;DHT22;2751;49.802;9.944;2023-04-12T11:17:25;11.80;99.90
5457;DHT22;2751;49.802;9.944;2023-04-12T11:19:55;12.00;1.00
5457;DHT22;2751;49.802;9.944;2023-04-12T11:22:24;12.30;1.00
5457;DHT22;2751;49.802;9.944;2023-04-12T11:24:53;12.00;1.00
5457;DHT22;2751;49.802;9.944;2023-04-12T11:27:22;12.20;1.00
5457;DHT22;2751;49.802;9.944;2023-04-12T11:29:50;12.00;1.00
5457;DHT22;2751;49.802;9.944;2023-04-12T11:32:20;12.00;1.00
5457;DHT22;2751;49.802;9.944;2023-04-12T11:34:47;12.00;99.90
5457;DHT22;2751;49.802;9.944;2023-04-12T11:37:17;12.10;99.90
5457;DHT22;2751;49.802;9.944;2023-04-12T11:39:45;12.10;1.00
5457;DHT22;2751;49.802;9.944;2023-04-12T11:42:14;12.20;1.00
5457;DHT22;2751;49.802;9.944;2023-04-12T11:44:42;12.20;99.90
5457;DHT22;2751;49.802;9.944;2023-04-12T11:47:13;12.20;1.00
5457;DHT22;2751;49.802;9.944;2023-04-12T11:49:45;12.30;99.90
5457;DHT22;2751;49.802;9.944;2023-04-12T11:52:16;12.30;99.90
5457;DHT22;2751;49.802;9.944;2023-04-12T11:54:44;12.60;1.00
5457;DHT22;2751;49.802;9.944;2023-04-12T11:57:12;12.70;1.00
5457;DHT22;2751;49.802;9.944;2023-04-12T11:59:41;12.90;99.90
5457;DHT22;2751;49.802;9.944;2023-04-12T12:02:09;13.60;1.00
5457;DHT22;2751;49.802;9.944;2023-04-12T12:04:36;14.10;1.00
5457;DHT22;2751;49.802;9.944;2023-04-12T12:07:03;14.10;99.90
5457;DHT22;2751;49.802;9.944;2023-04-12T12:09:34;14.50;99.90
5457;DHT22;2751;49.802;9.944;2023-04-12T12:12:01;14.70;99.90
5457;DHT22;2751;49.802;9.944;2023-04-12T12:14:28;14.40;99.90
5457;DHT22;2751;49.802;9.944;2023-04-12T12:16:58;14.10;99.90
5457;DHT22;2751;49.802;9.944;2023-04-12T12:19:30;13.90;99.90
5457;DHT22;2751;49.802;9.944;2023-04-12T12:22:11;13.70;99.90
5457;DHT22;2751;49.802;9.944;2023-04-12T12:24:44;13.50;99.90
5457;DHT22;2751;49.802;9.944;2023-04-12T12:27:11;13.30;99.90
5457;DHT22;2751;49.802;9.944;2023-04-12T12:29:38;13.40;99.90
5457;DHT22;2751;49.802;9.944;2023-04-12T12:32:10;13.40;99.90
5457;DHT22;2751;49.802;9.944;2023-04-12T12:34:39;13.20;99.90
5457;DHT22;2751;49.802;9.944;2023-04-12T12:37:08;13.40;99.90
5457;DHT22;2751;49.802;9.944;2023-04-12T12:39:35;13.30;99.90
5457;DHT22;2751;49.802;9.944;2023-04-12T12:42:04;13.30;99.90
5457;DHT22;2751;49.802;9.944;2023-04-12T12:44:31;13.00;99.90
5457;DHT22;2751;49.802;9.944;2023-04-12T12:46:59;13.40;99.90
5457;DHT22;2751;49.802;9.944;2023-04-12T12:49:26;13.50;99.90
5457;DHT22;2751;49.802;9.944;2023-04-12T12:51:54;13.90;99.90
5457;DHT22;2751;49.802;9.944;2023-04-12T12:54:21;13.70;99.90
5457;DHT22;2751;49.802;9.944;2023-04-12T12:56:48;14.20;99.90
5457;DHT22;2751;49.802;9.944;2023-04-12T12:59:16;14.00;99.90
5457;DHT22;2751;49.802;9.944;2023-04-12T13:01:43;14.30;99.90
5457;DHT22;2751;49.802;9.944;2023-04-12T13:04:09;13.90;99.90
5457;DHT22;2751;49.802;9.944;2023-04-12T13:06:36;14.10;99.90
5457;DHT22;2751;49.802;9.944;2023-04-12T13:09:04;14.10;99.90
5457;DHT22;2751;49.802;9.944;2023-04-12T13:11:31;14.20;99.90
5457;DHT22;2751;49.802;9.944;2023-04-12T13:13:58;14.20;99.90
5457;DHT22;2751;49.802;9.944;2023-04-12T13:16:26;14.70;99.90
5457;DHT22;2751;49.802;9.944;2023-04-12T13:18:53;14.70;99.90
5457;DHT22;2751;49.802;9.944;2023-04-12T13:21:20;14.80;99.90
5457;DHT22;2751;49.802;9.944;2023-04-12T13:23:47;14.70;99.90
5457;DHT22;2751;49.802;9.944;2023-04-12T13:26:14;14.60;99.90
5457;DHT22;2751;49.802;9.944;2023-04-12T13:28:41;14.20;99.90
5457;DHT22;2751;49.802;9.944;2023-04-12T13:31:08;14.20;99.90
5457;DHT22;2751;49.802;9.944;2023-04-12T13:33:36;14.50;99.90
5457;DHT22;2751;49.802;9.944;2023-04-12T13:36:03;14.50;99.90
5457;DHT22;2751;49.802;9.944;2023-04-12T13:38:30;14.60;99.90
5457;DHT22;2751;49.802;9.944;2023-04-12T13:40:57;14.70;99.90
5457;DHT22;2751;49.802;9.944;2023-04-12T13:43:24;14.80;99.90
5457;DHT22;2751;49.802;9.944;2023-04-12T13:45:51;15.00;99.90
5457;DHT22;2751;49.802;9.944;2023-04-12T13:48:18;15.40;99.90
5457;DHT22;2751;49.802;9.944;2023-04-12T13:50:46;15.40;99.90
5457;DHT22;2751;49.802;9.944;2023-04-12T13:53:13;15.90;99.90
5457;DHT22;2751;49.802;9.944;2023-04-12T13:55:40;16.80;99.90
5457;DHT22;2751;49.802;9.944;2023-04-12T13:58:08;17.50;99.90
5457;DHT22;2751;49.802;9.944;2023-04-12T14:00:35;17.50;99.90
5457;DHT22;2751;49.802;9.944;2023-04-12T14:03:02;17.40;99.90
5457;DHT22;2751;49.802;9.944;2023-04-12T14:05:29;17.30;99.90
5457;DHT22;2751;49.802;9.944;2023-04-12T14:07:57;17.10;99.90
5457;DHT22;2751;49.802;9.944;2023-04-12T14:10:24;17.20;99.90
5457;DHT22;2751;49.802;9.944;2023-04-12T14:12:51;17.30;99.90
5457;DHT22;2751;49.802;9.944;2023-04-12T14:15:18;17.00;99.90
5457;DHT22;2751;49.802;9.944;2023-04-12T14:17:45;17.00;99.90
5457;DHT22;2751;49.802;9.944;2023-04-12T14:20:12;17.00;99.90
5457;DHT22;2751;49.802;9.944;2023-04-12T14:22:39;16.70;99.90
5457;DHT22;2751;49.802;9.944;2023-04-12T14:25:09;16.50;99.90
5457;DHT22;2751;49.802;9.944;2023-04-12T14:27:36;16.20;99.90
5457;DHT22;2751;49.802;9.944;2023-04-12T14:30:04;15.80;99.90
5457;DHT22;2751;49.802;9.944;2023-04-12T14:32:31;15.60;99.90
5457;DHT22;2751;49.802;9.944;2023-04-12T14:34:58;15.40;99.90
5457;DHT22;2751;49.802;9.944;2023-04-12T14:37:25;15.50;99.90
5457;DHT22;2751;49.802;9.944;2023-04-12T14:39:52;15.50;99.90
5457;DHT22;2751;49.802;9.944;2023-04-12T14:42:21;15.60;99.90
5457;DHT22;2751;49.802;9.944;2023-04-12T14:44:48;15.90;99.90
5457;DHT22;2751;49.802;9.944;2023-04-12T14:47:15;16.10;99.90
5457;DHT22;2751;49.802;9.944;2023-04-12T14:49:42;16.40;99.90
5457;DHT22;2751;49.802;9.944;2023-04-12T14:52:08;16.50;99.90
5457;DHT22;2751;49.802;9.944;2023-04-12T14:54:35;16.40;99.90
5457;DHT22;2751;49.802;9.944;2023-04-12T14:57:02;16.20;99.90
5457;DHT22;2751;49.802;9.944;2023-04-12T14:59:31;15.90;99.90
5457;DHT22;2751;49.802;9.944;2023-04-12T15:01:58;15.80;99.90
5457;DHT22;2751;49.802;9.944;2023-04-12T15:04:25;15.70;99.90
5457;DHT22;2751;49.802;9.944;2023-04-12T15:06:51;16.10;99.90
5457;DHT22;2751;49.802;9.944;2023-04-12T15:09:18;16.50;99.90
5457;DHT22;2751;49.802;9.944;2023-04-12T15:11:48;16.70;99.90
5457;DHT22;2751;49.802;9.944;2023-04-12T15:14:19;16.50;99.90
5457;DHT22;2751;49.802;9.944;2023-04-12T15:16:49;16.40;99.90
5457;DHT22;2751;49.802;9.944;2023-04-12T15:19:15;16.40;99.90
5457;DHT22;2751;49.802;9.944;2023-04-12T15:21:44;16.20;99.90
5457;DHT22;2751;49.802;9.944;2023-04-12T15:24:15;16.30;99.90
5457;DHT22;2751;49.802;9.944;2023-04-12T15:26:42;16.50;99.90
5457;DHT22;2751;49.802;9.944;2023-04-12T15:29:09;16.10;99.90
5457;DHT22;2751;49.802;9.944;2023-04-12T15:31:36;16.00;99.90
5457;DHT22;2751;49.802;9.944;2023-04-12T15:34:04;15.80;99.90
5457;DHT22;2751;49.802;9.944;2023-04-12T15:36:31;15.30;99.90
5457;DHT22;2751;49.802;9.944;2023-04-12T15:39:00;15.10;99.90
5457;DHT22;2751;49.802;9.944;2023-04-12T15:41:32;15.10;99.90
5457;DHT22;2751;49.802;9.944;2023-04-12T15:44:01;14.40;99.90
5457;DHT22;2751;49.802;9.944;2023-04-12T15:46:28;14.10;99.90
5457;DHT22;2751;49.802;9.944;2023-04-12T15:48:55;13.80;99.90
5457;DHT22;2751;49.802;9.944;2023-04-12T15:51:24;13.50;99.90
5457;DHT22;2751;49.802;9.944;2023-04-12T15:53:52;13.00;99.90
5457;DHT22;2751;49.802;9.944;2023-04-12T15:56:19;12.70;99.90
5457;DHT22;2751;49.802;9.944;2023-04-12T15:58:49;12.30;99.90
5457;DHT22;2751;49.802;9.944;2023-04-12T16:01:16;11.90;99.90
5457;DHT22;2751;49.802;9.944;2023-04-12T16:03:43;11.60;99.90
5457;DHT22;2751;49.802;9.944;2023-04-12T16:06:12;11.50;99.90
5457;DHT22;2751;49.802;9.944;2023-04-12T16:08:45;11.60;99.90
5457;DHT22;2751;49.802;9.944;2023-04-12T16:11:14;11.60;99.90
5457;DHT22;2751;49.802;9.944;2023-04-12T16:13:41;11.60;99.90
5457;DHT22;2751;49.802;9.944;2023-04-12T16:16:10;11.70;99.90
5457;DHT22;2751;49.802;9.944;2023-04-12T16:18:38;11.80;99.90
5457;DHT22;2751;49.802;9.944;2023-04-12T16:21:05;12.20;99.90
5457;DHT22;2751;49.802;9.944;2023-04-12T16:23:32;12.50;99.90
5457;DHT22;2751;49.802;9.944;2023-04-12T16:26:01;12.70;99.90
5457;DHT22;2751;49.802;9.944;2023-04-12T16:28:29;13.00;99.90
5457;DHT22;2751;49.802;9.944;2023-04-12T16:30:56;13.00;99.90